Time;durP1;ratioP1;P1;durP2;ratioP2;P2;SDS_P1;SDS_P2;PMS_P1;PMS_P2;Temp;Humidity;BMP_temperature;BMP_pressure;BME280_temperature;BME280_humidity;BME280_pressure;Samples;Min_cycle;Max_cycle;Signal;HPM_P1;HPM_P2
2022/01/26 00:00:08;;;;;;;;;;;;;;;;;;5000239;28;20639;-72
2022/01/26 00:06:02;;;;;;;20.40;12.98;;;;;;;;;;4899002;29;20051;-74
2022/01/26 00:08:28;;;;;;;24.90;13.70;;;;;;;;;;4913923;28;20062;-74
2022/01/26 00:10:54;;;;;;;21.05;13.32;;;;;;;;;;4905816;29;20628;-72
2022/01/26 00:13:21;;;;;;;16.98;12.38;;;;;;;;;;4915534;28;20043;-74
2022/01/26 00:15:47;;;;;;;18.13;13.15;;;;;;;;;;4915005;28;20548;-74
2022/01/26 00:18:14;;;;;;;20.40;13.18;;;;;;;;;;4912965;28;20870;-74
2022/01/26 00:20:52;;;;;;;19.52;13.05;;;;;;;;;;4914928;28;20067;-72
2022/01/26 00:26:21;;;;;;;16.77;11.93;;;;;;;;;;4917263;28;20053;-72
2022/01/26 00:39:37;;;;;;;19.42;11.80;;;;;;;;;;4946441;28;20131;-71
2022/01/26 00:42:04;;;;;;;17.55;12.32;;;;;;;;;;5009578;28;20061;-70
2022/01/26 00:44:40;;;;;;;20.90;11.90;;;;;;;;;;5006071;28;20368;-76
2022/01/26 00:47:07;;;;;;;17.98;12.05;;;;;;;;;;5005126;28;20086;-71
2022/01/26 00:49:33;;;;;;;18.60;11.93;;;;;;;;;;5007423;28;20053;-71
2022/01/26 00:52:00;;;;;;;18.40;11.60;;;;;;;;;;5011648;28;20064;-70
2022/01/26 00:54:27;;;;;;;18.27;11.52;;;;;;;;;;5009914;28;20109;-71
2022/01/26 00:56:53;;;;;;;14.98;10.88;;;;;;;;;;4984702;28;20571;-74
2022/01/26 00:59:20;;;;;;;15.65;11.07;;;;;;;;;;5010117;28;21776;-73
2022/01/26 01:01:47;;;;;;;16.05;10.75;;;;;;;;;;5012039;28;21060;-73
2022/01/26 01:04:13;;;;;;;16.35;10.45;;;;;;;;;;5001529;28;20055;-74
2022/01/26 01:06:50;;;;;;;17.45;11.02;;;;;;;;;;4954586;28;20161;-76
2022/01/26 01:09:17;;;;;;;16.33;10.93;;;;;;;;;;4990164;28;20416;-73
2022/01/26 01:11:44;;;;;;;16.85;10.73;;;;;;;;;;5009349;28;20073;-74
2022/01/26 01:14:11;;;;;;;22.15;11.38;;;;;;;;;;4974434;28;20061;-72
2022/01/26 01:16:37;;;;;;;18.55;10.45;;;;;;;;;;4988040;28;20502;-75
2022/01/26 01:19:16;;;;;;;15.75;10.75;;;;;;;;;;5007083;28;20050;-70
2022/01/26 01:30:26;;;;;;;17.92;10.48;;;;;;;;;;4995279;28;20056;-73
2022/01/26 01:33:10;;;;;;;15.30;10.18;;;;;;;;;;4983866;28;20056;-72
2022/01/26 01:35:40;;;;;;;14.30;9.75;;;;;;;;;;5020373;28;20476;-70
2022/01/26 01:38:09;;;;;;;14.38;9.57;;;;;;;;;;5001664;28;21883;-69
2022/01/26 01:40:38;;;;;;;14.63;9.63;;;;;;;;;;5021745;28;20080;-72
2022/01/26 01:43:05;;;;;;;13.52;9.10;;;;;;;;;;5005573;28;20060;-69
2022/01/26 01:45:38;;;;;;;14.48;9.75;;;;;;;;;;5019868;28;20465;-73
2022/01/26 01:48:05;;;;;;;15.80;10.05;;;;;;;;;;5003334;28;20052;-74
2022/01/26 01:50:36;;;;;;;14.18;9.63;;;;;;;;;;5021277;28;20861;-70
2022/01/26 01:53:03;;;;;;;16.20;9.40;;;;;;;;;;5020461;28;20139;-75
2022/01/26 01:55:31;;;;;;;14.25;9.93;;;;;;;;;;5018389;28;20068;-76
2022/01/26 01:57:59;;;;;;;14.50;9.43;;;;;;;;;;4985125;28;20057;-69
2022/01/26 02:00:29;;;;;;;12.32;9.52;;;;;;;;;;5000250;28;20064;-73
2022/01/26 02:02:56;;;;;;;13.15;9.38;;;;;;;;;;5020726;28;20045;-75
2022/01/26 02:05:22;;;;;;;14.43;8.85;;;;;;;;;;5021449;28;21427;-72
2022/01/26 02:07:50;;;;;;;15.48;9.68;;;;;;;;;;4988809;28;20483;-74
2022/01/26 02:10:17;;;;;;;13.55;9.27;;;;;;;;;;4991785;28;20137;-71
2022/01/26 02:12:48;;;;;;;12.25;8.43;;;;;;;;;;4987409;28;20084;-71
2022/01/26 02:15:23;;;;;;;13.32;9.27;;;;;;;;;;4984507;28;20068;-73
2022/01/26 02:20:56;;;;;;;12.15;8.77;;;;;;;;;;4988757;28;20133;-74
2022/01/26 03:01:50;;;;;;;11.85;7.78;;;;;;;;;;4927896;28;20241;-76
2022/01/26 03:06:51;;;;;;;11.40;7.97;;;;;;;;;;4925183;28;20634;-75
2022/01/26 03:09:23;;;;;;;11.40;7.55;;;;;;;;;;4914258;28;20051;-71
2022/01/26 03:11:49;;;;;;;9.40;7.28;;;;;;;;;;4949780;28;20476;-74
2022/01/26 03:16:58;;;;;;;10.77;7.13;;;;;;;;;;4941001;28;20428;-72
2022/01/26 03:19:41;;;;;;;9.52;7.35;;;;;;;;;;4911941;28;20626;-70
2022/01/26 03:35:27;;;;;;;12.30;7.00;;;;;;;;;;4988204;28;20053;-72
2022/01/26 03:37:55;;;;;;;10.38;7.07;;;;;;;;;;4986835;28;20049;-73
2022/01/26 03:40:30;;;;;;;10.75;6.95;;;;;;;;;;4996327;28;20169;-69
2022/01/26 03:42:58;;;;;;;9.38;7.30;;;;;;;;;;4991916;28;20053;-74
2022/01/26 03:45:26;;;;;;;10.93;6.53;;;;;;;;;;5010127;28;20126;-71
2022/01/26 03:47:54;;;;;;;11.57;6.88;;;;;;;;;;5003744;28;20418;-74
2022/01/26 03:50:22;;;;;;;9.35;6.53;;;;;;;;;;5010727;28;20084;-73
2022/01/26 03:52:48;;;;;;;9.85;6.65;;;;;;;;;;4991684;28;20056;-73
2022/01/26 03:55:14;;;;;;;10.45;6.32;;;;;;;;;;4993765;28;20099;-73
2022/01/26 03:57:41;;;;;;;10.32;6.20;;;;;;;;;;5005339;28;20620;-71
2022/01/26 04:00:08;;;;;;;9.80;6.15;;;;;;;;;;4991951;28;20044;-73
2022/01/26 04:02:35;;;;;;;8.85;6.20;;;;;;;;;;5009738;28;20060;-72
2022/01/26 04:05:06;;;;;;;8.35;6.43;;;;;;;;;;5009536;28;20049;-73
2022/01/26 04:07:32;;;;;;;10.82;5.60;;;;;;;;;;5007445;28;20122;-70
2022/01/26 04:10:09;;;;;;;9.05;5.43;;;;;;;;;;4992652;28;20138;-71
2022/01/26 04:12:37;;;;;;;7.28;5.75;;;;;;;;;;4990921;28;20746;-70
2022/01/26 04:15:15;;;;;;;7.72;5.70;;;;;;;;;;4988919;28;20050;-72
2022/01/26 04:17:41;;;;;;;7.15;5.80;;;;;;;;;;5004925;28;20506;-70
2022/01/26 04:20:08;;;;;;;8.63;5.85;;;;;;;;;;5008158;28;20128;-76
2022/01/26 04:22:48;;;;;;;9.00;6.25;;;;;;;;;;5012069;28;20156;-70
2022/01/26 04:25:19;;;;;;;7.18;5.30;;;;;;;;;;4989922;28;20060;-73
2022/01/26 04:27:49;;;;;;;7.13;5.25;;;;;;;;;;4987991;28;20114;-73
2022/01/26 04:30:15;;;;;;;9.07;5.38;;;;;;;;;;4977357;28;20064;-71
2022/01/26 04:32:43;;;;;;;8.73;6.22;;;;;;;;;;5009773;28;20061;-75
2022/01/26 04:35:10;;;;;;;8.52;5.88;;;;;;;;;;5005216;28;20140;-71
2022/01/26 04:40:45;;;;;;;9.98;6.30;;;;;;;;;;4993459;28;20779;-74
2022/01/26 04:43:18;;;;;;;11.48;6.85;;;;;;;;;;4978874;28;20457;-71
2022/01/26 04:45:45;;;;;;;12.95;5.97;;;;;;;;;;4993310;28;20053;-72
2022/01/26 04:48:11;;;;;;;9.70;6.90;;;;;;;;;;4991038;28;20553;-72
2022/01/26 04:50:37;;;;;;;9.02;6.30;;;;;;;;;;4992109;28;20487;-74
2022/01/26 04:53:04;;;;;;;8.20;6.22;;;;;;;;;;4994499;28;20155;-70
2022/01/26 04:55:30;;;;;;;9.18;6.05;;;;;;;;;;4977475;28;20140;-71
2022/01/26 04:57:56;;;;;;;8.85;6.30;;;;;;;;;;4989489;28;20350;-74
2022/01/26 05:00:22;;;;;;;10.52;7.32;;;;;;;;;;4993631;28;20321;-74
2022/01/26 05:02:48;;;;;;;9.60;6.07;;;;;;;;;;4974364;28;20176;-73
2022/01/26 05:05:15;;;;;;;8.27;6.00;;;;;;;;;;4990236;28;20160;-72
2022/01/26 05:07:41;;;;;;;9.00;5.75;;;;;;;;;;4970678;28;20605;-76
2022/01/26 05:10:07;;;;;;;7.45;5.85;;;;;;;;;;4975429;28;20049;-71
2022/01/26 05:12:35;;;;;;;9.13;6.07;;;;;;;;;;4991000;28;20061;-72
2022/01/26 05:15:01;;;;;;;13.07;6.57;;;;;;;;;;4984541;28;20407;-72
2022/01/26 05:17:27;;;;;;;8.80;5.93;;;;;;;;;;5007996;28;20510;-70
2022/01/26 05:19:57;;;;;;;10.10;6.50;;;;;;;;;;5007986;28;20073;-74
2022/01/26 05:22:23;;;;;;;9.02;6.05;;;;;;;;;;4993402;28;20057;-72
2022/01/26 05:24:50;;;;;;;8.98;5.90;;;;;;;;;;5007189;28;20049;-74
2022/01/26 05:27:17;;;;;;;9.20;6.07;;;;;;;;;;5006731;28;20049;-74
2022/01/26 05:29:43;;;;;;;7.95;5.93;;;;;;;;;;5008519;28;20136;-73
2022/01/26 05:32:09;;;;;;;7.68;5.40;;;;;;;;;;4996310;28;20706;-71
2022/01/26 05:34:35;;;;;;;9.45;5.65;;;;;;;;;;5008171;28;20049;-69
2022/01/26 05:37:02;;;;;;;8.40;5.50;;;;;;;;;;4998527;28;20060;-72
2022/01/26 05:39:28;;;;;;;10.90;6.03;;;;;;;;;;5011627;28;20764;-71
2022/01/26 05:41:56;;;;;;;7.60;6.00;;;;;;;;;;5015555;28;20419;-71
2022/01/26 05:44:22;;;;;;;10.52;6.25;;;;;;;;;;4993614;28;20088;-74
2022/01/26 05:46:50;;;;;;;7.85;5.53;;;;;;;;;;5014176;28;20045;-74
2022/01/26 05:49:18;;;;;;;6.63;5.82;;;;;;;;;;4998026;28;20057;-74
2022/01/26 05:51:47;;;;;;;8.32;5.97;;;;;;;;;;5010346;28;20069;-73
2022/01/26 05:54:15;;;;;;;8.20;5.20;;;;;;;;;;5012133;28;20347;-73
2022/01/26 05:56:42;;;;;;;7.03;5.50;;;;;;;;;;5007737;28;20060;-75
2022/01/26 05:59:09;;;;;;;8.55;5.60;;;;;;;;;;5012513;28;20529;-72
2022/01/26 06:01:36;;;;;;;8.50;5.90;;;;;;;;;;4990920;28;20111;-74
2022/01/26 06:04:02;;;;;;;12.90;5.95;;;;;;;;;;5012861;28;20083;-70
2022/01/26 06:06:29;;;;;;;9.80;5.47;;;;;;;;;;5003675;28;21942;-71
2022/01/26 06:08:55;;;;;;;9.98;5.70;;;;;;;;;;5009951;28;20040;-72
2022/01/26 06:11:21;;;;;;;10.07;5.60;;;;;;;;;;5011615;28;20057;-74
2022/01/26 06:13:47;;;;;;;9.38;5.85;;;;;;;;;;5014687;28;20057;-73
2022/01/26 06:16:14;;;;;;;7.05;5.80;;;;;;;;;;4994480;28;20076;-75
2022/01/26 06:18:40;;;;;;;11.88;6.13;;;;;;;;;;5011569;28;20138;-73
2022/01/26 06:21:08;;;;;;;9.35;5.97;;;;;;;;;;5011946;28;20053;-72
2022/01/26 06:23:35;;;;;;;11.48;6.60;;;;;;;;;;5011579;28;20095;-70
2022/01/26 06:26:01;;;;;;;8.15;5.80;;;;;;;;;;5010622;28;20048;-71
2022/01/26 06:28:28;;;;;;;14.57;7.35;;;;;;;;;;5005240;28;20642;-72
2022/01/26 06:30:59;;;;;;;8.82;6.13;;;;;;;;;;5010258;28;20053;-71
2022/01/26 06:33:26;;;;;;;9.40;5.82;;;;;;;;;;5014601;28;20063;-73
2022/01/26 06:35:53;;;;;;;7.93;5.80;;;;;;;;;;4992684;28;20840;-75
2022/01/26 06:38:19;;;;;;;9.23;5.55;;;;;;;;;;4990229;28;20125;-75
2022/01/26 06:40:45;;;;;;;10.75;6.45;;;;;;;;;;5013580;28;20401;-72
2022/01/26 06:43:14;;;;;;;11.52;6.32;;;;;;;;;;5015355;28;20240;-74
2022/01/26 06:45:48;;;;;;;12.18;6.30;;;;;;;;;;4991670;28;20072;-74
2022/01/26 06:50:43;;;;;;;17.13;6.25;;;;;;;;;;5010497;28;20412;-74
2022/01/26 06:53:10;;;;;;;11.63;6.40;;;;;;;;;;5014354;28;20156;-72
2022/01/26 06:55:37;;;;;;;12.88;6.07;;;;;;;;;;5013122;28;20092;-73
2022/01/26 06:58:03;;;;;;;10.77;5.68;;;;;;;;;;5005222;28;20092;-76
2022/01/26 07:00:29;;;;;;;8.25;5.63;;;;;;;;;;5009405;28;20116;-73
2022/01/26 07:02:55;;;;;;;7.32;5.28;;;;;;;;;;4993609;28;20046;-74
2022/01/26 07:05:22;;;;;;;9.75;5.82;;;;;;;;;;5012853;28;20056;-75
2022/01/26 07:07:48;;;;;;;15.40;6.10;;;;;;;;;;4986868;28;20143;-74
2022/01/26 07:10:15;;;;;;;13.07;6.10;;;;;;;;;;5010864;28;20052;-76
2022/01/26 07:12:41;;;;;;;10.75;6.00;;;;;;;;;;5010016;28;20060;-73
2022/01/26 07:23:07;;;;;;;8.77;5.60;;;;;;;;;;4990381;28;20063;-68
2022/01/26 07:25:35;;;;;;;11.13;5.90;;;;;;;;;;5002884;28;20045;-68
2022/01/26 07:28:03;;;;;;;10.35;6.10;;;;;;;;;;5004880;28;20098;-68
2022/01/26 07:30:36;;;;;;;10.02;5.88;;;;;;;;;;5009468;28;20451;-70
2022/01/26 07:33:05;;;;;;;10.82;5.82;;;;;;;;;;5010407;28;21485;-67
2022/01/26 07:35:31;;;;;;;11.73;6.63;;;;;;;;;;4992790;28;20064;-68
2022/01/26 07:37:59;;;;;;;13.40;6.90;;;;;;;;;;5003985;28;20045;-69
2022/01/26 07:40:26;;;;;;;14.27;6.45;;;;;;;;;;4992938;28;20423;-71
2022/01/26 07:42:53;;;;;;;11.57;6.03;;;;;;;;;;4992955;28;20057;-68
2022/01/26 07:45:20;;;;;;;8.82;5.90;;;;;;;;;;4990548;28;20097;-68
2022/01/26 07:47:51;;;;;;;18.65;6.22;;;;;;;;;;4990165;28;20206;-70
2022/01/26 07:50:18;;;;;;;14.68;6.07;;;;;;;;;;5011700;28;20331;-71
2022/01/26 07:52:44;;;;;;;13.45;5.90;;;;;;;;;;4995316;28;20497;-69
2022/01/26 07:55:15;;;;;;;13.38;5.90;;;;;;;;;;5018426;28;20176;-75
2022/01/26 07:57:44;;;;;;;10.07;6.30;;;;;;;;;;4998854;28;20513;-73
2022/01/26 08:00:10;;;;;;;11.85;5.55;;;;;;;;;;5005587;28;20045;-70
2022/01/26 08:02:37;;;;;;;8.50;5.57;;;;;;;;;;5023756;28;20262;-74
2022/01/26 08:05:04;;;;;;;14.65;6.18;;;;;;;;;;5021399;28;20499;-71
2022/01/26 08:07:30;;;;;;;12.05;5.22;;;;;;;;;;5012602;28;20048;-70
2022/01/26 08:09:57;;;;;;;10.82;5.40;;;;;;;;;;5013673;28;20049;-69
2022/01/26 08:12:23;;;;;;;9.55;5.65;;;;;;;;;;5014310;28;20096;-70
2022/01/26 08:14:50;;;;;;;9.13;5.32;;;;;;;;;;5016086;28;20064;-70
2022/01/26 08:17:16;;;;;;;15.40;5.78;;;;;;;;;;5007674;28;20557;-71
2022/01/26 08:19:43;;;;;;;10.90;5.47;;;;;;;;;;4997929;28;20049;-73
2022/01/26 08:22:11;;;;;;;8.32;5.72;;;;;;;;;;5015341;28;20064;-72
2022/01/26 08:24:39;;;;;;;12.13;5.82;;;;;;;;;;4997798;28;20076;-69
2022/01/26 08:27:10;;;;;;;10.32;5.47;;;;;;;;;;5007289;28;20064;-72
2022/01/26 08:29:47;;;;;;;11.80;5.55;;;;;;;;;;4995294;28;20195;-68
2022/01/26 08:32:14;;;;;;;10.82;5.97;;;;;;;;;;5018388;28;20496;-71
2022/01/26 08:34:41;;;;;;;31.13;6.32;;;;;;;;;;4998140;28;20045;-71
2022/01/26 08:37:08;;;;;;;16.60;5.93;;;;;;;;;;5012621;28;20199;-71
2022/01/26 08:39:36;;;;;;;31.60;7.68;;;;;;;;;;5013612;28;20140;-70
2022/01/26 08:42:05;;;;;;;18.90;6.10;;;;;;;;;;5016461;28;20411;-71
2022/01/26 08:44:36;;;;;;;16.15;6.43;;;;;;;;;;5017844;28;20057;-71
2022/01/26 08:47:05;;;;;;;26.13;6.90;;;;;;;;;;5015241;28;20084;-70
2022/01/26 08:49:33;;;;;;;37.10;7.78;;;;;;;;;;5018562;28;20056;-69
2022/01/26 08:52:00;;;;;;;14.98;6.22;;;;;;;;;;5013453;28;20052;-72
2022/01/26 08:54:27;;;;;;;11.38;5.72;;;;;;;;;;5017754;28;20084;-71
2022/01/26 08:56:54;;;;;;;11.63;6.15;;;;;;;;;;5008416;28;20486;-70
2022/01/26 08:59:23;;;;;;;14.35;6.22;;;;;;;;;;5011246;28;20041;-71
2022/01/26 09:01:50;;;;;;;12.20;5.78;;;;;;;;;;5007307;28;20045;-74
2022/01/26 09:04:16;;;;;;;12.25;6.57;;;;;;;;;;4993897;28;20534;-73
2022/01/26 09:06:54;;;;;;;13.85;6.43;;;;;;;;;;4994008;28;20614;-71
2022/01/26 09:09:24;;;;;;;11.77;6.30;;;;;;;;;;5016883;28;20433;-74
2022/01/26 09:11:51;;;;;;;18.23;6.45;;;;;;;;;;4985104;28;20110;-73
2022/01/26 09:14:20;;;;;;;17.77;6.80;;;;;;;;;;5023910;28;20060;-74
2022/01/26 09:16:51;;;;;;;12.63;6.47;;;;;;;;;;5018987;28;20049;-75
2022/01/26 09:19:27;;;;;;;12.05;5.93;;;;;;;;;;5020051;28;20467;-70
2022/01/26 09:22:09;;;;;;;14.90;7.28;;;;;;;;;;5004398;28;20049;-70
2022/01/26 09:24:37;;;;;;;13.45;6.93;;;;;;;;;;5019121;28;20072;-72
2022/01/26 09:27:05;;;;;;;12.07;6.68;;;;;;;;;;5015307;28;20061;-73
2022/01/26 09:29:31;;;;;;;14.18;7.43;;;;;;;;;;4998103;28;20517;-71
2022/01/26 09:31:58;;;;;;;15.63;8.27;;;;;;;;;;5023305;28;20076;-73
2022/01/26 09:34:28;;;;;;;15.93;8.52;;;;;;;;;;5002173;28;20063;-73
2022/01/26 09:36:54;;;;;;;16.45;8.00;;;;;;;;;;5017407;28;20079;-71
2022/01/26 09:39:22;;;;;;;15.18;8.65;;;;;;;;;;5019160;28;20128;-73
2022/01/26 09:41:50;;;;;;;27.42;9.40;;;;;;;;;;5023908;28;20049;-73
2022/01/26 09:44:17;;;;;;;23.17;8.45;;;;;;;;;;5001539;28;20067;-72
2022/01/26 09:46:45;;;;;;;18.65;7.82;;;;;;;;;;4999706;28;20049;-73
2022/01/26 09:49:16;;;;;;;13.40;7.65;;;;;;;;;;5014359;28;20064;-74
2022/01/26 09:51:44;;;;;;;14.77;8.35;;;;;;;;;;5021108;28;20094;-72
2022/01/26 09:54:15;;;;;;;17.25;8.10;;;;;;;;;;5023031;28;20714;-71
2022/01/26 09:56:51;;;;;;;18.77;7.88;;;;;;;;;;4995941;28;20049;-73
2022/01/26 09:59:19;;;;;;;14.77;7.07;;;;;;;;;;5020094;28;20052;-70
2022/01/26 10:01:49;;;;;;;13.82;7.15;;;;;;;;;;5021015;28;20463;-71
2022/01/26 10:04:22;;;;;;;15.55;7.47;;;;;;;;;;5005971;28;20059;-73
2022/01/26 10:07:44;;;;;;;13.07;6.82;;;;;;;;;;5013418;28;20053;-72
2022/01/26 10:15:39;;;;;;;13.40;6.63;;;;;;;;;;4998401;28;20057;-71
2022/01/26 10:18:13;;;;;;;11.60;7.00;;;;;;;;;;5014143;28;20734;-74
2022/01/26 10:20:40;;;;;;;;;;;;;;;;;;4998131;28;20141;-72
2022/01/26 10:23:09;;;;;;;13.88;6.25;;;;;;;;;;5021946;28;20023;-70
2022/01/26 10:25:35;;;;;;;12.30;5.80;;;;;;;;;;5014611;28;20744;-70
2022/01/26 10:28:02;;;;;;;9.43;6.05;;;;;;;;;;5008967;28;20056;-71
2022/01/26 10:30:28;;;;;;;15.35;6.40;;;;;;;;;;5003335;28;20057;-70
2022/01/26 10:32:54;;;;;;;15.05;5.72;;;;;;;;;;5022279;28;20059;-73
2022/01/26 10:35:20;;;;;;;11.23;5.05;;;;;;;;;;5003519;28;20426;-70
2022/01/26 10:37:51;;;;;;;9.27;4.97;;;;;;;;;;5017124;28;20437;-70
2022/01/26 10:40:22;;;;;;;8.90;4.35;;;;;;;;;;4988784;28;20064;-71
2022/01/26 10:42:53;;;;;;;7.35;4.18;;;;;;;;;;5020319;28;20099;-72
2022/01/26 10:45:33;;;;;;;9.02;5.10;;;;;;;;;;5006283;28;20049;-72
2022/01/26 10:48:19;;;;;;;7.93;4.35;;;;;;;;;;5020304;28;20045;-71
2022/01/26 10:51:09;;;;;;;7.97;4.80;;;;;;;;;;5028989;28;20115;-72
2022/01/26 10:53:39;;;;;;;13.50;4.22;;;;;;;;;;5021333;28;20057;-69
2022/01/26 10:56:06;;;;;;;7.45;4.07;;;;;;;;;;4985624;28;20045;-69
2022/01/26 10:58:33;;;;;;;7.05;3.38;;;;;;;;;;5019070;28;20052;-70
2022/01/26 11:00:59;;;;;;;8.13;4.03;;;;;;;;;;5031446;28;20049;-69
2022/01/26 11:03:26;;;;;;;10.57;4.20;;;;;;;;;;5007289;28;20420;-71
2022/01/26 11:05:52;;;;;;;10.73;4.18;;;;;;;;;;5036125;28;20049;-69
2022/01/26 11:08:21;;;;;;;6.55;4.22;;;;;;;;;;5021500;28;20539;-72
2022/01/26 11:10:47;;;;;;;8.05;4.20;;;;;;;;;;5033096;28;20627;-71
2022/01/26 11:13:25;;;;;;;5.43;3.88;;;;;;;;;;5026993;28;20138;-72
2022/01/26 11:15:51;;;;;;;13.07;4.35;;;;;;;;;;5029781;28;20147;-72
2022/01/26 11:18:27;;;;;;;7.65;4.15;;;;;;;;;;5029714;28;20336;-73
2022/01/26 11:20:54;;;;;;;5.28;3.85;;;;;;;;;;5024789;28;20050;-70
2022/01/26 11:23:35;;;;;;;7.57;3.63;;;;;;;;;;5018678;28;20160;-70
2022/01/26 11:26:02;;;;;;;6.32;3.10;;;;;;;;;;5036425;28;20049;-70
2022/01/26 11:28:28;;;;;;;9.63;4.03;;;;;;;;;;5021220;28;20072;-71
2022/01/26 11:30:59;;;;;;;6.30;2.97;;;;;;;;;;5036395;28;20049;-71
2022/01/26 11:33:29;;;;;;;5.07;2.72;;;;;;;;;;5031369;28;20143;-70
2022/01/26 11:35:57;;;;;;;6.28;3.35;;;;;;;;;;5035406;28;20067;-70
2022/01/26 11:46:57;;;;;;;3.75;2.47;;;;;;;;;;5034416;28;20194;-70
2022/01/26 11:49:34;;;;;;;5.35;2.47;;;;;;;;;;5030115;28;20052;-73
2022/01/26 11:52:00;;;;;;;4.45;1.70;;;;;;;;;;5030845;28;20060;-72
2022/01/26 11:54:40;;;;;;;5.25;1.77;;;;;;;;;;5036233;28;20049;-72
2022/01/26 11:57:13;;;;;;;13.18;1.65;;;;;;;;;;5015111;28;20041;-71
2022/01/26 11:59:48;;;;;;;5.10;1.88;;;;;;;;;;5025799;28;20045;-72
2022/01/26 12:02:29;;;;;;;3.13;1.70;;;;;;;;;;5033741;28;20941;-71
2022/01/26 12:05:01;;;;;;;4.82;1.65;;;;;;;;;;5026201;28;20049;-70
2022/01/26 12:07:28;;;;;;;4.00;2.10;;;;;;;;;;5030358;28;20387;-73
2022/01/26 12:09:56;;;;;;;6.18;1.85;;;;;;;;;;5033281;28;20101;-70
2022/01/26 12:12:24;;;;;;;2.97;1.75;;;;;;;;;;5036805;28;20202;-72
2022/01/26 12:15:02;;;;;;;5.78;2.10;;;;;;;;;;5014800;28;20099;-72
2022/01/26 12:17:35;;;;;;;3.65;1.90;;;;;;;;;;5031236;28;20060;-72
2022/01/26 12:32:04;;;;;;;3.28;1.98;;;;;;;;;;5019538;28;20102;-71
2022/01/26 12:42:25;;;;;;;;;;;;;;;;;;5007799;28;20050;-70
2022/01/26 12:45:01;;;;;;;4.47;2.28;;;;;;;;;;5017165;28;20142;-70
2022/01/26 12:47:30;;;;;;;6.78;2.60;;;;;;;;;;5007957;28;20454;-76
2022/01/26 12:49:57;;;;;;;8.00;2.63;;;;;;;;;;5031402;28;20049;-70
2022/01/26 12:52:25;;;;;;;5.60;2.20;;;;;;;;;;5034470;28;20045;-71
2022/01/26 12:54:52;;;;;;;6.03;1.95;;;;;;;;;;5028925;28;20069;-75
2022/01/26 12:57:18;;;;;;;4.82;1.90;;;;;;;;;;5020418;28;20060;-72
2022/01/26 12:59:44;;;;;;;10.80;2.10;;;;;;;;;;5031145;28;20076;-72
2022/01/26 13:02:12;;;;;;;5.75;1.92;;;;;;;;;;5015680;28;20052;-72
2022/01/26 13:04:38;;;;;;;4.55;2.20;;;;;;;;;;5003036;28;20714;-71
2022/01/26 13:07:04;;;;;;;6.97;1.98;;;;;;;;;;5015369;28;20060;-71
2022/01/26 13:09:41;;;;;;;7.32;2.35;;;;;;;;;;5012016;28;20057;-72
2022/01/26 13:12:10;;;;;;;6.95;2.00;;;;;;;;;;5030817;28;20053;-73
2022/01/26 13:14:41;;;;;;;4.57;1.92;;;;;;;;;;5036242;28;20132;-74
2022/01/26 13:25:54;;;;;;;5.63;2.55;;;;;;;;;;5033791;28;20268;-72
2022/01/26 13:28:53;;;;;;;7.75;2.60;;;;;;;;;;5025177;28;20080;-73
2022/01/26 13:34:37;;;;;;;4.50;2.15;;;;;;;;;;5029670;28;20518;-70
2022/01/26 13:37:24;;;;;;;4.78;1.98;;;;;;;;;;5032133;28;20472;-74
2022/01/26 13:39:59;;;;;;;;;;;;;;;;;;;;;
2022/01/26 13:48:18;;;;;;;7.68;2.20;;;;;;;;;;5017594;28;20340;-73
2022/01/26 13:50:54;;;;;;;10.00;2.88;;;;;;;;;;5020412;28;20041;-72
2022/01/26 13:53:35;;;;;;;4.82;2.15;;;;;;;;;;5001931;28;20057;-72
2022/01/26 13:56:10;;;;;;;4.80;1.90;;;;;;;;;;5000432;28;20044;-72
2022/01/26 14:01:20;;;;;;;4.10;2.03;;;;;;;;;;5022588;28;20060;-72
2022/01/26 14:03:51;;;;;;;4.22;1.80;;;;;;;;;;5001568;28;20049;-72
2022/01/26 14:06:17;;;;;;;5.38;2.30;;;;;;;;;;5005127;28;20057;-71
2022/01/26 14:08:44;;;;;;;9.32;1.80;;;;;;;;;;5017760;28;20049;-73
2022/01/26 14:11:10;;;;;;;5.47;2.13;;;;;;;;;;5007606;28;20056;-73
2022/01/26 14:13:37;;;;;;;6.10;2.10;;;;;;;;;;5026692;28;20560;-73
2022/01/26 14:16:05;;;;;;;7.13;2.20;;;;;;;;;;5001870;28;20065;-71
2022/01/26 14:26:40;;;;;;;4.88;2.13;;;;;;;;;;5000494;28;20049;-72
2022/01/26 14:29:16;;;;;;;4.63;2.15;;;;;;;;;;5013390;28;20050;-71
2022/01/26 14:32:01;;;;;;;8.52;2.65;;;;;;;;;;5011430;28;20057;-74
2022/01/26 14:40:31;;;;;;;8.30;1.77;;;;;;;;;;5016559;28;20534;-72
2022/01/26 14:51:57;;;;;;;2.45;1.55;;;;;;;;;;4988853;28;20132;-71
2022/01/26 15:42:55;;;;;;;4.95;1.90;;;;;;;;;;4982262;28;21179;-72
2022/01/26 15:50:48;;;;;;;5.65;1.70;;;;;;;;;;5006720;28;20422;-73
2022/01/26 16:04:31;;;;;;;4.68;1.80;;;;;;;;;;5015494;28;20053;-74
2022/01/26 16:16:29;;;;;;;11.68;2.35;;;;;;;;;;4990810;28;20574;-73
2022/01/26 18:16:20;;;;;;;8.88;3.70;;;;;;;;;;4999183;28;19929;-72
2022/01/26 18:31:49;;;;;;;;;;;;;;;;;;4993996;28;20049;-72
2022/01/26 18:51:38;;;;;;;;;;;;;;;;;;5000619;28;20073;-70
2022/01/26 18:54:06;;;;;;;7.75;4.28;;;;;;;;;;5013469;28;19932;-75
2022/01/26 18:56:35;;;;;;;13.70;4.60;;;;;;;;;;5015908;28;20060;-74
2022/01/26 18:59:03;;;;;;;16.33;5.63;;;;;;;;;;4991072;28;20061;-76
2022/01/26 19:01:29;;;;;;;10.38;5.55;;;;;;;;;;5018658;28;20140;-72
2022/01/26 19:03:55;;;;;;;14.80;5.97;;;;;;;;;;4992681;28;20055;-74
2022/01/26 19:06:21;;;;;;;13.05;6.65;;;;;;;;;;5014177;28;20242;-72
2022/01/26 19:08:48;;;;;;;21.52;7.35;;;;;;;;;;4994534;28;20051;-73
2022/01/26 19:11:15;;;;;;;16.77;6.20;;;;;;;;;;4976669;28;20165;-74
2022/01/26 19:13:45;;;;;;;14.20;5.47;;;;;;;;;;5010384;28;20467;-74
2022/01/26 19:16:59;;;;;;;13.45;5.68;;;;;;;;;;4989857;28;20071;-73
2022/01/26 19:26:41;;;;;;;15.82;6.15;;;;;;;;;;5011278;28;20050;-76
2022/01/26 19:53:10;;;;;;;19.48;8.80;;;;;;;;;;5007636;28;20682;-75
2022/01/26 19:55:36;;;;;;;16.67;9.02;;;;;;;;;;4993777;28;20060;-77
2022/01/26 19:58:04;;;;;;;15.82;9.50;;;;;;;;;;5006363;28;20053;-76
2022/01/26 20:00:31;;;;;;;25.05;10.27;;;;;;;;;;5008193;28;20064;-75
2022/01/26 20:02:58;;;;;;;22.38;9.95;;;;;;;;;;4990932;28;20052;-75
2022/01/26 20:05:25;;;;;;;19.27;9.77;;;;;;;;;;5003595;28;20060;-81
2022/01/26 20:07:59;;;;;;;19.45;10.93;;;;;;;;;;5003826;28;20049;-73
2022/01/26 20:10:30;;;;;;;20.33;11.00;;;;;;;;;;5004689;28;20049;-77
2022/01/26 20:13:03;;;;;;;18.98;10.40;;;;;;;;;;5008502;28;20063;-79
2022/01/26 20:15:30;;;;;;;21.45;10.82;;;;;;;;;;4990435;28;20268;-77
2022/01/26 20:17:58;;;;;;;23.05;11.38;;;;;;;;;;4990164;28;20045;-71
2022/01/26 20:20:25;;;;;;;22.50;11.15;;;;;;;;;;5002165;28;20875;-76
2022/01/26 20:22:53;;;;;;;18.98;10.52;;;;;;;;;;5007068;28;20076;-72
2022/01/26 20:25:20;;;;;;;20.08;9.98;;;;;;;;;;4989043;28;20088;-75
2022/01/26 20:27:47;;;;;;;23.02;12.18;;;;;;;;;;4988337;28;20057;-75
2022/01/26 20:30:17;;;;;;;20.08;11.38;;;;;;;;;;4989973;28;20045;-76
2022/01/26 20:32:46;;;;;;;28.67;11.80;;;;;;;;;;4990782;28;20053;-74
2022/01/26 20:35:17;;;;;;;22.42;11.50;;;;;;;;;;5009217;28;20562;-75
2022/01/26 20:37:44;;;;;;;18.80;11.48;;;;;;;;;;5003823;28;20146;-77
2022/01/26 20:40:11;;;;;;;26.13;11.45;;;;;;;;;;4990521;28;20049;-75
2022/01/26 20:42:38;;;;;;;23.33;11.25;;;;;;;;;;4989531;28;21280;-73
2022/01/26 20:45:06;;;;;;;21.15;11.80;;;;;;;;;;5008489;28;20123;-73
2022/01/26 20:47:34;;;;;;;21.48;11.13;;;;;;;;;;5004479;28;20049;-71
2022/01/26 20:50:01;;;;;;;22.63;11.38;;;;;;;;;;4990149;28;20041;-72
2022/01/26 20:52:28;;;;;;;25.60;11.00;;;;;;;;;;5005371;28;20504;-75
2022/01/26 20:54:54;;;;;;;19.48;10.48;;;;;;;;;;5007653;28;20522;-74
2022/01/26 20:57:21;;;;;;;26.20;11.98;;;;;;;;;;4986348;28;20060;-77
2022/01/26 20:59:47;;;;;;;20.98;11.15;;;;;;;;;;4988696;28;20418;-78
2022/01/26 21:02:13;;;;;;;21.05;11.40;;;;;;;;;;5004925;28;20053;-77
2022/01/26 21:04:39;;;;;;;19.63;11.65;;;;;;;;;;5008371;28;20769;-75
2022/01/26 21:07:05;;;;;;;24.42;12.15;;;;;;;;;;4988311;28;20049;-73
2022/01/26 21:09:31;;;;;;;25.48;12.45;;;;;;;;;;5006583;28;20045;-71
2022/01/26 21:11:59;;;;;;;25.45;12.25;;;;;;;;;;5008308;28;20128;-73
2022/01/26 21:14:26;;;;;;;24.75;13.60;;;;;;;;;;5005477;28;20855;-76
2022/01/26 21:16:55;;;;;;;23.27;12.95;;;;;;;;;;5005431;28;20376;-77
2022/01/26 21:19:21;;;;;;;20.67;12.32;;;;;;;;;;4987930;28;20053;-74
2022/01/26 21:21:47;;;;;;;22.45;12.23;;;;;;;;;;5014586;28;20539;-72
2022/01/26 21:24:13;;;;;;;25.08;11.48;;;;;;;;;;5014745;28;20065;-72
2022/01/26 21:26:40;;;;;;;17.65;11.43;;;;;;;;;;5016315;28;20046;-72
2022/01/26 21:29:06;;;;;;;24.23;11.30;;;;;;;;;;4989843;28;20794;-76
2022/01/26 21:31:33;;;;;;;20.60;11.35;;;;;;;;;;4994419;28;20057;-74
2022/01/26 21:34:00;;;;;;;27.27;11.52;;;;;;;;;;5019454;28;20843;-73
2022/01/26 21:36:26;;;;;;;23.33;12.55;;;;;;;;;;5013361;28;20071;-78
2022/01/26 21:38:53;;;;;;;24.15;12.40;;;;;;;;;;5008219;28;20061;-71
2022/01/26 21:41:21;;;;;;;27.42;11.68;;;;;;;;;;4992479;28;20057;-71
2022/01/26 21:43:48;;;;;;;29.92;13.57;;;;;;;;;;4975124;28;20042;-75
2022/01/26 21:46:14;;;;;;;29.92;13.55;;;;;;;;;;5013370;28;20443;-73
2022/01/26 21:48:40;;;;;;;31.95;14.27;;;;;;;;;;5012164;28;20053;-73
2022/01/26 21:51:07;;;;;;;26.98;12.98;;;;;;;;;;5011923;28;20302;-74
2022/01/26 21:53:33;;;;;;;24.73;14.32;;;;;;;;;;4997879;28;20055;-74
2022/01/26 21:56:00;;;;;;;21.60;13.68;;;;;;;;;;5018167;28;20164;-71